createdAt,value
2018-08-27T00:00:47.282Z,47.78
2018-08-27T00:01:53.304Z,47.96
2018-08-27T00:02:58.055Z,48.06
2018-08-27T00:04:03.079Z,48.36
2018-08-27T00:05:07.794Z,48.44
2018-08-27T00:06:13.217Z,48.35
2018-08-27T00:07:19.011Z,48.54
2018-08-27T00:08:24.664Z,48.72
2018-08-27T00:09:29.415Z,48.92
2018-08-27T00:10:35.462Z,49.14
2018-08-27T00:11:43.607Z,49.24
2018-08-27T00:12:49.432Z,49.17
2018-08-27T00:13:54.137Z,49.56
2018-08-27T00:14:59.762Z,49.89
2018-08-27T00:16:04.911Z,49.72
2018-08-27T00:17:11.520Z,49.89
2018-08-27T00:18:17.736Z,50.12
2018-08-27T00:19:23.336Z,50.05
2018-08-27T00:20:28.428Z,50.06
2018-08-27T00:21:34.819Z,50.11
2018-08-27T00:22:40.392Z,50.12
2018-08-27T00:23:47.311Z,50.43
2018-08-27T00:24:52.618Z,50.53
2018-08-27T00:26:00.512Z,50.66
2018-08-27T00:27:05.204Z,50.69
2018-08-27T00:28:11.106Z,50.72
2018-08-27T00:29:18.159Z,50.75
2018-08-27T00:30:24.681Z,51.09
2018-08-27T00:31:29.276Z,50.91
2018-08-27T00:32:33.884Z,51.03
2018-08-27T00:33:39.061Z,50.96
2018-08-27T00:34:44.661Z,51.27
2018-08-27T00:35:50.590Z,51.23
2018-08-27T00:36:55.187Z,51.07
2018-08-27T00:37:59.970Z,51.22
2018-08-27T00:39:06.745Z,51.24
2018-08-27T00:40:13.765Z,51.37
2018-08-27T00:41:19.467Z,51.40
2018-08-27T00:42:24.247Z,51.47
2018-08-27T00:43:29.780Z,51.21
2018-08-27T00:44:34.657Z,51.77
2018-08-27T00:45:40.068Z,51.60
2018-08-27T00:46:48.735Z,51.68
2018-08-27T00:47:54.846Z,51.73
2018-08-27T00:48:59.824Z,51.67
2018-08-27T00:50:04.781Z,51.75
2018-08-27T00:51:09.681Z,51.79
2018-08-27T00:52:14.560Z,51.90
2018-08-27T00:53:19.288Z,51.76
2018-08-27T00:54:24.256Z,52.02
2018-08-27T00:55:30.959Z,51.64
2018-08-27T00:56:36.471Z,51.74
2018-08-27T00:57:42.868Z,51.63
2018-08-27T00:58:48.613Z,51.58
2018-08-27T00:59:53.379Z,51.78
2018-08-27T01:00:58.393Z,51.72
2018-08-27T01:02:03.138Z,51.85
2018-08-27T01:03:07.870Z,51.91
2018-08-27T01:04:12.609Z,51.97
2018-08-27T01:05:17.401Z,51.97
2018-08-27T01:06:22.189Z,51.97
2018-08-27T01:07:27.898Z,51.90
2018-08-27T01:08:32.639Z,52.12
2018-08-27T01:09:38.347Z,53.09
2018-08-27T01:10:43.068Z,53.90
2018-08-27T01:11:49.312Z,54.18
2018-08-27T01:12:58.518Z,55.74
2018-08-27T01:14:03.573Z,56.07
2018-08-27T01:15:08.938Z,57.56
2018-08-27T01:16:13.685Z,57.90
2018-08-27T01:17:18.406Z,58.90
2018-08-27T01:18:23.959Z,59.53
2018-08-27T01:19:28.698Z,60.52
2018-08-27T01:20:33.805Z,61.36
2018-08-27T01:21:38.539Z,62.91
2018-08-27T01:22:43.290Z,62.89
2018-08-27T01:23:48.274Z,63.74
2018-08-27T01:24:53.766Z,62.69
2018-08-27T01:25:58.535Z,63.49
2018-08-27T01:27:04.376Z,64.05
2018-08-27T01:28:09.118Z,64.75
2018-08-27T01:29:14.016Z,65.02
2018-08-27T01:30:20.527Z,64.59
2018-08-27T01:31:25.470Z,62.91
2018-08-27T01:32:30.132Z,62.36
2018-08-27T01:33:35.472Z,62.50
2018-08-27T01:34:40.626Z,61.37
2018-08-27T01:35:45.319Z,60.84
2018-08-27T01:36:49.942Z,60.99
2018-08-27T01:37:55.089Z,61.68
2018-08-27T01:38:59.764Z,61.19
2018-08-27T01:40:05.251Z,61.33
2018-08-27T01:41:10.836Z,61.47
2018-08-27T01:42:15.517Z,61.34
2018-08-27T01:43:20.925Z,61.18
2018-08-27T01:44:25.677Z,61.19
2018-08-27T01:45:30.448Z,60.67
2018-08-27T01:46:35.538Z,61.08
2018-08-27T01:47:40.350Z,60.93
2018-08-27T01:48:45.177Z,60.90
2018-08-27T01:49:50.000Z,60.73
2018-08-27T01:50:55.336Z,60.41
2018-08-27T01:52:00.080Z,60.20
2018-08-27T01:53:06.037Z,60.57
2018-08-27T01:54:11.403Z,60.77
2018-08-27T01:55:17.135Z,60.68
2018-08-27T01:56:21.937Z,60.67
2018-08-27T01:57:27.767Z,60.64
2018-08-27T01:58:33.407Z,60.94
2018-08-27T01:59:39.021Z,60.76
2018-08-27T02:00:43.760Z,60.30
2018-08-27T02:01:49.052Z,60.40
2018-08-27T02:02:53.833Z,60.49
2018-08-27T02:03:59.380Z,59.95
2018-08-27T02:05:05.443Z,60.02
2018-08-27T02:06:10.506Z,59.77
2018-08-27T02:07:16.400Z,59.29
2018-08-27T02:08:21.185Z,59.55
2018-08-27T02:09:26.820Z,59.24
2018-08-27T02:10:31.569Z,59.33
2018-08-27T02:11:36.361Z,59.06
2018-08-27T02:12:41.393Z,59.02
2018-08-27T02:13:46.134Z,58.65
2018-08-27T02:14:50.915Z,58.68
2018-08-27T02:15:55.649Z,58.82
2018-08-27T02:17:00.416Z,58.80
2018-08-27T02:18:05.285Z,59.00
2018-08-27T02:19:10.313Z,58.73
2018-08-27T02:20:17.013Z,58.17
2018-08-27T02:21:21.757Z,57.71
2018-08-27T02:22:26.540Z,57.73
2018-08-27T02:23:31.284Z,57.76
2018-08-27T02:24:36.048Z,58.33
2018-08-27T02:25:43.324Z,58.53
2018-08-27T02:26:48.320Z,58.91
2018-08-27T02:27:53.107Z,58.54
2018-08-27T02:29:00.892Z,58.24
2018-08-27T02:30:05.717Z,58.29
2018-08-27T02:31:10.479Z,57.77
2018-08-27T02:32:15.673Z,57.75
2018-08-27T02:33:20.471Z,57.18
2018-08-27T02:34:25.250Z,57.42
2018-08-27T02:36:39.578Z,57.26
2018-08-27T02:37:44.316Z,57.43
2018-08-27T02:38:49.400Z,57.46
2018-08-27T02:39:54.169Z,57.50
2018-08-27T02:40:58.905Z,57.72
2018-08-27T02:42:03.636Z,57.92
2018-08-27T02:43:09.359Z,58.37
2018-08-27T02:44:14.115Z,58.83
2018-08-27T02:45:19.180Z,59.45
2018-08-27T02:46:23.903Z,60.44
2018-08-27T02:47:28.749Z,60.83
2018-08-27T02:48:33.808Z,61.32
2018-08-27T02:49:39.301Z,61.65
2018-08-27T02:50:44.268Z,62.46
2018-08-27T02:51:49.289Z,63.12
2018-08-27T02:52:54.125Z,63.88
2018-08-27T02:53:59.439Z,64.86
2018-08-27T02:55:04.186Z,65.22
2018-08-27T02:56:08.904Z,65.92
2018-08-27T02:57:14.071Z,66.01
2018-08-27T02:58:19.125Z,66.45
2018-08-27T02:59:24.004Z,67.03
2018-08-27T03:00:29.806Z,67.98
2018-08-27T03:01:35.458Z,68.10
2018-08-27T03:02:40.189Z,68.34
2018-08-27T03:03:45.849Z,68.15
2018-08-27T03:04:50.889Z,68.24
2018-08-27T03:05:55.649Z,68.37
2018-08-27T03:07:00.408Z,68.39
2018-08-27T03:08:05.309Z,68.23
2018-08-27T03:09:10.581Z,68.01
2018-08-27T03:10:15.509Z,67.73
2018-08-27T03:11:20.698Z,67.83
2018-08-27T03:12:26.029Z,67.81
2018-08-27T03:13:30.802Z,67.84
2018-08-27T03:14:35.578Z,67.62
2018-08-27T03:15:40.368Z,67.82
2018-08-27T03:16:45.525Z,67.88
2018-08-27T03:17:50.277Z,67.70
2018-08-27T03:18:55.736Z,67.87
2018-08-27T03:20:01.959Z,67.97
2018-08-27T03:21:06.687Z,67.88
2018-08-27T03:22:11.611Z,67.89
2018-08-27T03:23:16.676Z,67.83
2018-08-27T03:24:21.478Z,68.17
2018-08-27T03:25:26.294Z,68.01
2018-08-27T03:26:31.040Z,68.04
2018-08-27T03:27:36.195Z,67.92
2018-08-27T03:28:40.945Z,67.97
2018-08-27T03:29:46.155Z,68.17
2018-08-27T03:30:50.910Z,68.26
2018-08-27T03:31:55.649Z,69.15
2018-08-27T03:33:01.035Z,69.21
2018-08-27T03:34:05.813Z,69.05
2018-08-27T03:35:10.572Z,69.06
2018-08-27T03:36:15.719Z,68.62
2018-08-27T03:37:20.497Z,68.87
2018-08-27T03:38:25.317Z,68.69
2018-08-27T03:39:30.066Z,68.96
2018-08-27T03:40:34.875Z,69.57
2018-08-27T03:41:39.697Z,69.41
2018-08-27T03:42:44.901Z,69.42
2018-08-27T03:43:49.693Z,69.76
2018-08-27T03:44:54.531Z,70.16
2018-08-27T03:45:59.566Z,71.08
2018-08-27T03:47:05.245Z,71.32
2018-08-27T03:48:10.174Z,71.71
2018-08-27T03:49:16.316Z,72.03
2018-08-27T03:50:21.072Z,71.99
2018-08-27T03:51:26.486Z,72.33
2018-08-27T03:52:31.237Z,72.43
2018-08-27T03:53:35.968Z,72.69
2018-08-27T03:54:40.718Z,72.83
2018-08-27T03:55:45.923Z,72.72
2018-08-27T03:56:50.674Z,72.52
2018-08-27T03:57:55.414Z,72.69
2018-08-27T03:59:00.938Z,72.93
2018-08-27T04:00:05.698Z,72.95
2018-08-27T04:01:10.453Z,73.14
2018-08-27T04:02:15.661Z,73.37
2018-08-27T04:03:20.421Z,73.66
2018-08-27T04:04:25.252Z,73.55
2018-08-27T04:05:30.055Z,73.54
2018-08-27T04:06:34.889Z,73.73
2018-08-27T04:07:39.539Z,74.16
2018-08-27T04:08:44.709Z,74.02
2018-08-27T04:09:49.334Z,74.50
2018-08-27T04:10:54.347Z,75.03
2018-08-27T04:11:58.989Z,74.96
2018-08-27T04:13:03.699Z,75.59
2018-08-27T04:14:08.377Z,75.57
2018-08-27T04:15:13.366Z,75.88
2018-08-27T04:16:18.153Z,76.11
2018-08-27T04:17:31.245Z,76.35
2018-08-27T04:18:36.093Z,76.71
2018-08-27T04:19:40.913Z,76.71
2018-08-27T04:20:45.649Z,76.99
2018-08-27T04:21:50.784Z,77.22
2018-08-27T04:22:55.972Z,77.74
2018-08-27T04:24:00.706Z,77.76
2018-08-27T04:25:05.545Z,78.21
2018-08-27T04:26:10.853Z,78.32
2018-08-27T04:27:15.587Z,78.73
2018-08-27T04:28:20.650Z,78.91
2018-08-27T04:29:25.275Z,78.87
2018-08-27T04:30:30.006Z,79.07
2018-08-27T04:31:34.772Z,79.14
2018-08-27T04:32:39.380Z,79.30
2018-08-27T04:33:44.077Z,79.39
2018-08-27T04:34:49.131Z,79.60
2018-08-27T04:35:53.781Z,79.58
2018-08-27T04:36:58.405Z,79.60
2018-08-27T04:38:03.078Z,79.90
2018-08-27T04:39:08.334Z,79.87
2018-08-27T04:40:13.006Z,79.93
2018-08-27T04:41:18.009Z,79.96
2018-08-27T04:42:22.654Z,79.62
2018-08-27T04:43:27.338Z,80.06
2018-08-27T04:44:31.977Z,80.04
2018-08-27T04:45:36.633Z,80.33
2018-08-27T04:46:41.412Z,80.14
2018-08-27T04:47:46.658Z,80.24
2018-08-27T04:48:51.408Z,80.53
2018-08-27T04:49:56.170Z,80.32
2018-08-27T04:51:01.196Z,80.50
2018-08-27T04:52:05.979Z,80.40
2018-08-27T04:53:10.745Z,80.44
2018-08-27T04:54:16.065Z,80.54
2018-08-27T04:55:20.843Z,80.89
2018-08-27T04:56:25.625Z,80.69
2018-08-27T04:57:30.399Z,80.87
2018-08-27T04:58:38.387Z,81.07
2018-08-27T04:59:47.265Z,80.94
2018-08-27T05:00:52.000Z,81.02
2018-08-27T05:01:56.788Z,80.83
2018-08-27T05:03:01.568Z,81.08
2018-08-27T05:04:06.309Z,80.82
2018-08-27T05:05:12.136Z,80.96
2018-08-27T05:06:17.281Z,80.95
2018-08-27T05:07:22.074Z,80.92
2018-08-27T05:08:26.833Z,81.05
2018-08-27T05:09:31.624Z,81.17
2018-08-27T05:10:36.594Z,81.25
2018-08-27T05:11:41.410Z,81.27
2018-08-27T05:12:47.544Z,81.12
2018-08-27T05:13:52.324Z,81.30
2018-08-27T05:14:57.468Z,81.14
2018-08-27T05:16:02.198Z,81.29
2018-08-27T05:17:07.728Z,80.99
2018-08-27T05:18:12.718Z,81.20
2018-08-27T05:19:17.908Z,81.07
2018-08-27T05:20:22.559Z,81.38
2018-08-27T05:21:27.223Z,81.39
2018-08-27T05:22:31.924Z,81.05
2018-08-27T05:23:36.561Z,81.15
2018-08-27T05:24:41.348Z,81.58
2018-08-27T05:25:46.531Z,81.69
2018-08-27T05:26:51.327Z,81.73
2018-08-27T05:27:56.124Z,81.72
2018-08-27T05:29:01.204Z,81.97
2018-08-27T05:33:14.661Z,82.44
2018-08-27T05:34:19.436Z,82.62
2018-08-27T05:35:24.181Z,82.78
2018-08-27T05:36:28.945Z,83.16
2018-08-27T05:37:33.807Z,83.32
2018-08-27T05:38:39.564Z,83.50
2018-08-27T05:39:44.382Z,83.38
2018-08-27T05:40:49.131Z,83.39
2018-08-27T05:41:53.893Z,83.50
2018-08-27T05:42:58.700Z,83.89
2018-08-27T05:44:03.484Z,83.68
2018-08-27T05:45:10.977Z,84.16
2018-08-27T05:46:15.781Z,84.28
2018-08-27T05:47:20.534Z,84.63
2018-08-27T05:48:25.332Z,84.93
2018-08-27T05:49:30.099Z,84.97
2018-08-27T05:50:35.417Z,85.00
2018-08-27T05:51:40.522Z,85.00
2018-08-27T05:52:45.317Z,85.07
2018-08-27T05:53:50.135Z,85.20
2018-08-27T05:54:54.975Z,85.30
2018-08-27T05:55:59.795Z,85.42
2018-08-27T05:57:04.557Z,85.41
2018-08-27T05:58:09.764Z,85.32
2018-08-27T05:59:16.702Z,85.39
2018-08-27T06:00:22.297Z,85.42
2018-08-27T06:01:27.486Z,85.48
2018-08-27T06:02:33.010Z,85.47
2018-08-27T06:03:38.242Z,85.30
2018-08-27T06:04:49.181Z,85.42
2018-08-27T06:05:54.205Z,85.42
2018-08-27T06:07:00.314Z,85.17
2018-08-27T06:08:05.089Z,85.23
2018-08-27T06:09:10.110Z,85.34
2018-08-27T06:10:14.940Z,85.27
2018-08-27T06:11:20.046Z,85.28
2018-08-27T06:12:24.835Z,85.31
2018-08-27T06:13:29.498Z,85.02
2018-08-27T06:14:35.419Z,84.96
2018-08-27T06:15:40.101Z,85.20
2018-08-27T06:16:45.435Z,85.21
2018-08-27T06:17:50.506Z,85.28
2018-08-27T06:18:56.423Z,85.27
2018-08-27T06:20:01.171Z,85.36
2018-08-27T06:21:06.604Z,85.34
2018-08-27T06:22:11.312Z,85.25
2018-08-27T06:23:17.776Z,85.01
2018-08-27T06:24:23.953Z,85.31
2018-08-27T06:25:32.315Z,85.45
2018-08-27T06:26:40.596Z,85.39
2018-08-27T06:27:45.261Z,85.33
2018-08-27T06:28:50.311Z,85.25
2018-08-27T06:29:55.421Z,85.17
2018-08-27T06:31:00.498Z,85.58
2018-08-27T06:32:06.256Z,85.55
2018-08-27T06:33:11.621Z,85.38
2018-08-27T06:34:16.589Z,85.26
2018-08-27T06:35:21.625Z,85.30
2018-08-27T06:36:26.770Z,85.42
2018-08-27T06:37:32.648Z,85.67
2018-08-27T06:38:38.263Z,85.97
2018-08-27T06:39:43.867Z,85.99
2018-08-27T06:40:49.235Z,86.14
2018-08-27T06:41:54.233Z,86.25
2018-08-27T06:42:59.099Z,86.37
2018-08-27T06:44:04.359Z,86.61
2018-08-27T06:45:09.327Z,86.22
2018-08-27T06:46:15.839Z,86.65
2018-08-27T06:47:20.694Z,86.69
2018-08-27T06:48:25.842Z,86.93
2018-08-27T06:49:30.600Z,86.93
2018-08-27T06:50:35.755Z,86.99
2018-08-27T06:51:47.289Z,86.75
2018-08-27T06:52:53.207Z,87.43
2018-08-27T06:54:03.044Z,87.54
2018-08-27T06:55:07.836Z,87.64
2018-08-27T06:56:12.542Z,87.78
2018-08-27T06:57:17.677Z,88.30
2018-08-27T06:58:22.308Z,88.13
2018-08-27T06:59:27.943Z,88.46
2018-08-27T07:00:33.485Z,88.40
2018-08-27T07:01:38.193Z,88.97
2018-08-27T07:02:42.852Z,89.04
2018-08-27T07:03:48.045Z,88.96
2018-08-27T07:04:52.667Z,90.26
2018-08-27T07:05:57.340Z,90.39
2018-08-27T07:07:02.281Z,90.63
2018-08-27T07:08:06.900Z,90.98
2018-08-27T07:09:12.119Z,91.01
2018-08-27T07:10:18.261Z,91.07
2018-08-27T07:11:22.962Z,91.22
2018-08-27T07:12:27.682Z,91.46
2018-08-27T07:13:32.325Z,91.95
2018-08-27T07:14:36.969Z,92.18
2018-08-27T07:15:42.569Z,92.27
2018-08-27T07:16:47.757Z,92.94
2018-08-27T07:17:52.791Z,92.95
2018-08-27T07:18:57.589Z,93.30
2018-08-27T07:20:02.450Z,93.27
2018-08-27T07:21:08.139Z,93.53
2018-08-27T07:22:13.154Z,93.57
2018-08-27T07:23:19.281Z,93.54
2018-08-27T07:24:24.114Z,93.45
2018-08-27T07:25:33.679Z,93.96
2018-08-27T07:26:38.471Z,94.06
2018-08-27T07:27:43.237Z,93.99
2018-08-27T07:28:48.504Z,94.41
2018-08-27T07:30:09.376Z,94.58
2018-08-27T07:32:34.180Z,94.69
2018-08-27T07:33:40.418Z,94.70
2018-08-27T07:34:45.498Z,94.72
2018-08-27T07:35:52.304Z,95.07
2018-08-27T07:36:57.717Z,95.42
2018-08-27T07:38:03.911Z,95.38
2018-08-27T07:39:10.561Z,95.25
2018-08-27T07:40:15.398Z,95.54
2018-08-27T07:41:20.202Z,95.27
2018-08-27T07:42:26.442Z,95.53
2018-08-27T07:43:32.061Z,95.56
2018-08-27T07:44:36.877Z,95.65
2018-08-27T07:45:43.276Z,95.71
2018-08-27T07:46:51.620Z,95.52
2018-08-27T07:47:56.469Z,95.84
2018-08-27T07:49:02.323Z,95.96
2018-08-27T07:50:08.460Z,96.07
2018-08-27T07:51:13.330Z,96.14
2018-08-27T07:52:21.183Z,95.91
2018-08-27T07:53:25.821Z,96.14
2018-08-27T07:54:31.501Z,95.91
2018-08-27T07:55:36.223Z,96.33
2018-08-27T07:56:40.907Z,96.09
2018-08-27T07:57:45.567Z,96.30
2018-08-27T07:58:51.100Z,96.46
2018-08-27T07:59:55.816Z,96.19
2018-08-27T08:01:01.607Z,96.42
2018-08-27T08:02:07.122Z,96.41
2018-08-27T08:03:11.842Z,96.01
2018-08-27T08:04:18.106Z,96.38
2018-08-27T08:05:24.409Z,100.00
2018-08-27T08:06:29.244Z,100.00
2018-08-27T08:07:35.494Z,96.14
2018-08-27T08:08:41.217Z,100.00
2018-08-27T08:09:46.699Z,30.26
2018-08-27T08:10:51.599Z,96.53
2018-08-27T08:11:56.233Z,96.67
2018-08-27T08:13:00.869Z,96.68
2018-08-27T08:14:07.092Z,97.14
2018-08-27T08:15:12.495Z,97.05
2018-08-27T08:16:17.121Z,96.94
2018-08-27T08:17:21.833Z,97.00
2018-08-27T08:18:28.181Z,96.93
2018-08-27T08:19:39.296Z,97.00
2018-08-27T08:20:47.321Z,96.81
2018-08-27T08:21:52.823Z,97.09
2018-08-27T08:22:58.340Z,100.00
2018-08-27T08:24:10.413Z,96.49
2018-08-27T08:25:15.830Z,96.42
2018-08-27T08:26:22.708Z,100.00
2018-08-27T08:27:28.050Z,95.78
2018-08-27T08:28:34.716Z,95.60
2018-08-27T08:29:41.072Z,100.00
2018-08-27T08:30:47.759Z,95.22
2018-08-27T08:31:59.536Z,95.20
2018-08-27T08:33:04.845Z,94.78
2018-08-27T08:34:09.899Z,94.78
2018-08-27T08:35:14.617Z,94.05
2018-08-27T08:36:19.543Z,93.79
2018-08-27T08:37:25.333Z,93.54
2018-08-27T08:38:31.282Z,100.00
2018-08-27T08:39:36.033Z,93.83
2018-08-27T08:40:42.197Z,93.71
2018-08-27T08:41:50.901Z,93.42
2018-08-27T08:42:55.710Z,92.88
2018-08-27T08:44:00.937Z,54.79
2018-08-27T08:45:06.346Z,92.48
2018-08-27T08:46:12.401Z,92.08
2018-08-27T08:47:17.739Z,92.19
2018-08-27T08:48:23.369Z,92.16
2018-08-27T08:49:31.057Z,92.46
2018-08-27T08:50:36.548Z,92.28
2018-08-27T08:51:41.437Z,92.02
2018-08-27T08:52:47.045Z,92.17
2018-08-27T08:53:51.876Z,92.28
2018-08-27T08:54:56.654Z,91.92
2018-08-27T08:56:01.339Z,91.92
2018-08-27T08:57:09.602Z,92.14
2018-08-27T08:58:14.306Z,91.39
2018-08-27T08:59:19.290Z,91.61
2018-08-27T09:00:24.912Z,91.44
2018-08-27T09:01:29.631Z,90.95
2018-08-27T09:02:34.283Z,90.58
2018-08-27T09:03:39.301Z,90.47
2018-08-27T09:04:43.933Z,90.58
2018-08-27T09:05:48.683Z,90.67
2018-08-27T09:06:53.357Z,90.64
2018-08-27T09:07:58.162Z,90.51
2018-08-27T09:09:05.814Z,90.42
2018-08-27T09:10:10.590Z,90.03
2018-08-27T09:11:15.240Z,89.81
2018-08-27T09:12:20.007Z,89.67
2018-08-27T09:13:24.724Z,89.64
2018-08-27T09:14:31.441Z,89.68
2018-08-27T09:15:38.290Z,89.80
2018-08-27T09:16:43.108Z,89.45
2018-08-27T09:17:47.748Z,89.51
2018-08-27T09:18:52.431Z,89.35
2018-08-27T09:19:58.009Z,89.09
2018-08-27T09:21:03.445Z,89.18
2018-08-27T09:22:09.011Z,88.36
2018-08-27T09:23:13.749Z,88.54
2018-08-27T09:24:18.414Z,88.63
2018-08-27T09:25:23.104Z,88.63
2018-08-27T09:26:28.431Z,88.72
2018-08-27T09:27:33.063Z,88.44
2018-08-27T09:28:40.327Z,88.44
2018-08-27T09:29:45.417Z,88.26
2018-08-27T09:30:51.065Z,87.83
2018-08-27T09:31:55.909Z,87.45
2018-08-27T09:33:00.654Z,87.49
2018-08-27T09:34:05.474Z,87.07
2018-08-27T09:35:10.624Z,87.09
2018-08-27T09:36:16.291Z,86.75
2018-08-27T09:37:21.373Z,86.11
2018-08-27T09:38:26.217Z,85.83
2018-08-27T09:39:35.363Z,85.62
2018-08-27T09:40:41.612Z,85.39
2018-08-27T09:41:46.343Z,85.50
2018-08-27T09:42:53.001Z,84.43
2018-08-27T09:43:58.657Z,84.79
2018-08-27T09:45:03.983Z,84.73
2018-08-27T09:46:09.745Z,84.10
2018-08-27T09:47:15.985Z,83.95
2018-08-27T09:48:20.676Z,84.16
2018-08-27T09:49:25.848Z,83.84
2018-08-27T09:50:31.689Z,84.22
2018-08-27T09:51:36.398Z,83.80
2018-08-27T09:52:42.358Z,83.88
2018-08-27T09:53:49.905Z,83.79
2018-08-27T09:54:58.408Z,83.71
2018-08-27T09:56:05.046Z,84.16
2018-08-27T09:57:13.074Z,84.26
2018-08-27T09:58:17.767Z,83.92
2018-08-27T09:59:25.017Z,83.89
2018-08-27T10:00:36.252Z,83.53
2018-08-27T10:01:45.753Z,83.22
2018-08-27T10:02:53.754Z,82.37
2018-08-27T10:04:01.860Z,81.97
2018-08-27T10:05:09.373Z,82.45
2018-08-27T10:06:22.432Z,82.18
2018-08-27T10:07:29.842Z,81.94
2018-08-27T10:08:34.587Z,81.28
2018-08-27T10:09:40.749Z,81.60
2018-08-27T10:10:49.927Z,80.58
2018-08-27T10:11:58.966Z,80.67
2018-08-27T10:13:04.227Z,80.42
2018-08-27T10:14:09.750Z,80.74
2018-08-27T10:15:14.668Z,80.39
2018-08-27T10:16:21.810Z,80.45
2018-08-27T10:17:26.695Z,80.10
2018-08-27T10:18:33.673Z,80.16
2018-08-27T10:19:41.084Z,80.04
2018-08-27T10:20:46.499Z,80.10
2018-08-27T10:21:52.971Z,80.32
2018-08-27T10:22:58.095Z,80.08
2018-08-27T10:24:02.903Z,79.64
2018-08-27T10:25:08.606Z,80.24
2018-08-27T10:26:14.286Z,79.72
2018-08-27T10:27:20.882Z,80.05
2018-08-27T10:28:25.553Z,79.77
2018-08-27T10:29:32.621Z,79.89
2018-08-27T10:32:20.859Z,79.82
2018-08-27T10:33:26.078Z,79.73
2018-08-27T10:34:31.888Z,79.78
2018-08-27T10:35:36.560Z,80.14
2018-08-27T10:36:43.866Z,80.04
2018-08-27T10:37:50.700Z,79.90
2018-08-27T10:38:56.310Z,79.49
2018-08-27T10:40:03.165Z,79.57
2018-08-27T10:41:08.505Z,80.07
2018-08-27T10:42:15.315Z,80.46
2018-08-27T10:43:21.217Z,80.60
2018-08-27T10:44:26.779Z,80.97
2018-08-27T10:45:31.657Z,80.81
2018-08-27T10:46:38.866Z,80.74
2018-08-27T10:47:44.653Z,81.37
2018-08-27T10:48:51.342Z,80.97
2018-08-27T10:49:57.693Z,81.31
2018-08-27T10:51:02.575Z,81.74
2018-08-27T10:52:07.893Z,81.46
2018-08-27T10:53:14.425Z,82.03
2018-08-27T10:54:20.150Z,82.21
2018-08-27T10:55:25.342Z,82.47
2018-08-27T10:56:31.226Z,82.46
2018-08-27T10:57:37.664Z,82.54
2018-08-27T10:58:43.872Z,82.58
2018-08-27T10:59:49.438Z,82.23
2018-08-27T11:00:54.299Z,82.41
2018-08-27T11:02:01.714Z,82.36
2018-08-27T11:03:07.294Z,81.92
2018-08-27T11:04:12.537Z,82.38
2018-08-27T11:05:18.527Z,82.10
2018-08-27T11:06:24.824Z,82.16
2018-08-27T11:07:31.368Z,82.07
2018-08-27T11:08:37.503Z,81.78
2018-08-27T11:09:42.224Z,81.77
2018-08-27T11:10:48.597Z,81.95
2018-08-27T11:11:54.640Z,81.62
2018-08-27T11:12:59.677Z,81.79
2018-08-27T11:14:09.077Z,81.70
2018-08-27T11:15:14.633Z,81.78
2018-08-27T11:16:22.577Z,80.80
2018-08-27T11:17:31.898Z,80.99
2018-08-27T11:18:38.061Z,81.06
2018-08-27T11:19:44.293Z,81.19
2018-08-27T11:20:49.168Z,81.14
2018-08-27T11:21:54.576Z,81.12
2018-08-27T11:23:00.555Z,80.40
2018-08-27T11:24:14.032Z,80.06
2018-08-27T11:25:21.111Z,80.31
2018-08-27T11:26:28.847Z,80.30
2018-08-27T11:27:34.165Z,79.40
2018-08-27T11:28:38.860Z,79.67
2018-08-27T11:29:44.442Z,79.03
2018-08-27T11:30:49.810Z,78.90
2018-08-27T11:31:59.702Z,78.12
2018-08-27T11:33:05.811Z,78.45
2018-08-27T11:34:11.794Z,78.04
2018-08-27T11:35:20.578Z,78.00
2018-08-27T11:36:26.490Z,78.35
2018-08-27T11:37:31.784Z,78.25
2018-08-27T11:38:37.383Z,78.35
2018-08-27T11:39:42.842Z,78.70
2018-08-27T11:40:51.005Z,78.50
2018-08-27T11:41:57.128Z,78.44
2018-08-27T11:43:04.972Z,78.72
2018-08-27T11:44:10.014Z,78.66
2018-08-27T11:45:19.174Z,78.59
2018-08-27T11:46:26.257Z,78.42
2018-08-27T11:47:31.686Z,78.62
2018-08-27T11:48:40.670Z,78.65
2018-08-27T11:49:46.575Z,78.84
2018-08-27T11:50:52.419Z,78.62
2018-08-27T11:51:58.107Z,78.58
2018-08-27T11:53:06.404Z,78.95
2018-08-27T11:54:13.316Z,78.14
2018-08-27T11:55:18.005Z,78.24
2018-08-27T11:56:26.712Z,77.86
2018-08-27T11:57:35.943Z,77.34
2018-08-27T11:58:42.396Z,77.25
2018-08-27T11:59:48.966Z,77.77
2018-08-27T12:01:01.585Z,77.44
2018-08-27T12:02:06.583Z,77.40
2018-08-27T12:03:13.703Z,77.22
2018-08-27T12:04:19.786Z,76.90
2018-08-27T12:05:26.395Z,77.15
2018-08-27T12:06:36.478Z,76.64
2018-08-27T12:07:41.557Z,76.61
2018-08-27T12:08:47.336Z,76.38
2018-08-27T12:09:52.401Z,76.43
2018-08-27T12:11:00.148Z,76.29
2018-08-27T12:12:05.512Z,75.95
2018-08-27T12:13:11.664Z,75.75
2018-08-27T12:14:17.559Z,75.65
2018-08-27T12:15:24.111Z,75.25
2018-08-27T12:16:29.521Z,74.40
2018-08-27T12:17:34.961Z,73.74
2018-08-27T12:18:42.330Z,72.91
2018-08-27T12:19:48.369Z,72.45
2018-08-27T12:20:53.400Z,71.98
2018-08-27T12:21:58.454Z,72.75
2018-08-27T12:23:04.830Z,71.78
2018-08-27T12:24:11.592Z,70.02
2018-08-27T12:25:18.035Z,69.77
2018-08-27T12:26:25.432Z,71.44
2018-08-27T12:27:31.012Z,71.64
2018-08-27T12:28:35.925Z,71.93
2018-08-27T12:29:42.363Z,72.64
2018-08-27T12:30:47.110Z,72.30
2018-08-27T12:31:51.816Z,72.11
2018-08-27T12:32:58.641Z,72.20
2018-08-27T12:34:03.710Z,72.21
2018-08-27T12:35:08.506Z,72.31
2018-08-27T12:36:15.237Z,73.02
2018-08-27T12:37:21.036Z,72.55
2018-08-27T12:38:25.744Z,72.32
2018-08-27T12:39:32.713Z,72.56
2018-08-27T12:40:39.096Z,71.75
2018-08-27T12:41:47.950Z,72.16
2018-08-27T12:42:53.977Z,72.02
2018-08-27T12:43:59.222Z,71.91
2018-08-27T12:45:05.271Z,71.99
2018-08-27T12:46:10.339Z,71.97
2018-08-27T12:47:15.670Z,72.17
2018-08-27T12:48:20.502Z,72.22
2018-08-27T12:49:26.552Z,72.42
2018-08-27T12:50:31.231Z,71.98
2018-08-27T13:42:11.671Z,63.02
2018-08-27T13:43:17.480Z,63.44
2018-08-27T13:44:27.111Z,63.86
2018-08-27T13:45:36.100Z,63.69
2018-08-27T13:46:44.856Z,64.68
2018-08-27T13:47:59.006Z,65.32
2018-08-27T13:49:04.688Z,65.95
2018-08-27T13:50:14.143Z,65.62
2018-08-27T13:51:19.552Z,65.01
2018-08-27T13:52:24.473Z,65.12
2018-08-27T13:53:29.259Z,65.36
2018-08-27T13:54:34.247Z,65.93
2018-08-27T13:55:39.796Z,66.49
2018-08-27T13:56:44.667Z,66.82
2018-08-27T13:57:50.561Z,67.02
2018-08-27T13:58:56.092Z,67.60
2018-08-27T14:00:00.922Z,67.32
2018-08-27T14:01:08.911Z,67.80
2018-08-27T14:02:14.932Z,68.25
2018-08-27T14:03:21.280Z,68.46
2018-08-27T14:04:26.599Z,68.02
2018-08-27T14:05:32.199Z,67.76
2018-08-27T14:06:38.031Z,68.91
2018-08-27T14:07:44.416Z,68.60
2018-08-27T14:08:51.775Z,68.65
2018-08-27T14:10:02.268Z,68.91
2018-08-27T14:11:07.643Z,68.40
2018-08-27T14:12:15.487Z,68.20
2018-08-27T14:14:32.437Z,67.91
2018-08-27T14:15:38.733Z,67.93
2018-08-27T14:16:43.441Z,68.21
2018-08-27T14:17:48.143Z,68.54
2018-08-27T14:18:53.934Z,68.52
2018-08-27T14:19:59.182Z,68.78
2018-08-27T14:21:04.129Z,68.68
2018-08-27T14:22:09.474Z,68.65
2018-08-27T14:23:16.131Z,68.66
2018-08-27T14:24:28.174Z,68.84
2018-08-27T14:25:34.828Z,68.83
2018-08-27T14:26:41.909Z,69.29
2018-08-27T14:27:46.728Z,68.95
2018-08-27T14:28:52.270Z,69.08
2018-08-27T14:30:00.863Z,69.06
2018-08-27T14:31:09.541Z,68.92
2018-08-27T14:32:30.241Z,68.99
2018-08-27T14:33:39.130Z,68.83
2018-08-27T14:34:44.792Z,68.79
2018-08-27T14:35:51.263Z,68.63
2018-08-27T14:36:57.166Z,68.97
2018-08-27T14:38:01.972Z,68.79
2018-08-27T14:39:12.123Z,69.14
2018-08-27T14:40:16.677Z,69.26
2018-08-27T14:41:23.043Z,69.22
2018-08-27T14:42:28.572Z,69.17
2018-08-27T14:43:34.257Z,69.04
2018-08-27T14:44:39.709Z,68.87
2018-08-27T14:45:44.525Z,68.94
2018-08-27T14:46:50.685Z,68.65
2018-08-27T14:47:56.337Z,68.21
2018-08-27T14:49:02.405Z,68.34
2018-08-27T14:50:08.055Z,68.42
2018-08-27T14:51:14.115Z,67.48
2018-08-27T14:52:18.962Z,66.89
2018-08-27T14:53:23.888Z,66.70
2018-08-27T14:54:28.713Z,66.30
2018-08-27T14:55:35.215Z,66.39
2018-08-27T14:56:41.298Z,66.34
2018-08-27T14:57:47.846Z,66.62
2018-08-27T14:58:54.357Z,66.69
2018-08-27T14:59:59.747Z,67.06
2018-08-27T15:01:09.674Z,67.28
2018-08-27T15:02:18.834Z,67.50
2018-08-27T15:03:23.768Z,67.24
2018-08-27T15:04:29.283Z,67.89
2018-08-27T15:05:35.954Z,67.86